createdAt,value
2019-03-13T00:01:32.208Z,7.29
2019-03-13T00:06:37.375Z,7.36
2019-03-13T00:11:42.924Z,7.43
2019-03-13T00:16:48.071Z,7.39
2019-03-13T00:21:53.343Z,7.46
2019-03-13T00:26:58.345Z,7.49
2019-03-13T00:32:05.134Z,7.46
2019-03-13T00:37:10.277Z,7.50
2019-03-13T00:42:15.700Z,7.33
2019-03-13T00:47:22.277Z,7.14
2019-03-13T00:52:27.706Z,6.95
2019-03-13T00:57:33.091Z,6.80
2019-03-13T01:02:41.051Z,6.56
2019-03-13T01:07:46.595Z,6.42
2019-03-13T01:12:52.057Z,6.30
2019-03-13T01:17:57.475Z,6.15
2019-03-13T01:23:02.624Z,6.03
2019-03-13T01:28:08.440Z,5.96
2019-03-13T01:33:16.835Z,5.91
2019-03-13T01:38:21.897Z,5.83
2019-03-13T01:43:26.964Z,5.74
2019-03-13T01:48:33.368Z,5.67
2019-03-13T01:53:39.689Z,5.52
2019-03-13T01:58:44.828Z,5.49
2019-03-13T02:03:49.963Z,5.48
2019-03-13T02:08:55.954Z,5.49
2019-03-13T02:14:01.020Z,5.49
2019-03-13T02:19:06.159Z,5.46
2019-03-13T02:24:12.623Z,5.44
2019-03-13T02:29:17.692Z,5.38
2019-03-13T02:34:23.105Z,5.24
2019-03-13T02:39:28.181Z,5.25
2019-03-13T02:44:33.252Z,5.15
2019-03-13T02:49:38.975Z,5.03
2019-03-13T02:54:44.027Z,5.01
2019-03-13T02:59:49.572Z,4.89
2019-03-13T03:04:56.189Z,4.81
2019-03-13T03:10:01.378Z,4.66
2019-03-13T03:15:12.728Z,4.60
2019-03-13T03:20:19.103Z,4.52
2019-03-13T03:25:24.236Z,4.35
2019-03-13T03:30:29.527Z,4.30
2019-03-13T03:35:35.000Z,4.43
2019-03-13T03:40:40.144Z,4.49
2019-03-13T03:45:45.252Z,4.47
2019-03-13T03:50:50.551Z,4.42
2019-03-13T03:55:55.599Z,4.24
2019-03-13T04:01:01.853Z,4.14
2019-03-13T04:06:07.083Z,4.03
2019-03-13T04:11:13.016Z,3.99
2019-03-13T04:16:18.149Z,4.05
2019-03-13T04:21:23.384Z,4.12
2019-03-13T04:26:28.507Z,4.04
2019-03-13T04:31:33.597Z,4.16
2019-03-13T04:36:38.735Z,4.17
2019-03-13T04:41:43.727Z,4.24
2019-03-13T04:46:48.710Z,4.05
2019-03-13T04:51:54.309Z,4.05
2019-03-13T04:56:59.384Z,4.00
2019-03-13T05:02:04.864Z,3.98
2019-03-13T05:07:10.279Z,3.79
2019-03-13T05:12:15.654Z,3.66
2019-03-13T05:17:20.703Z,3.50
2019-03-13T05:22:25.772Z,3.46
2019-03-13T05:27:30.923Z,3.30
2019-03-13T05:32:35.996Z,3.29
2019-03-13T05:37:41.364Z,3.20
2019-03-13T05:42:46.821Z,3.27
2019-03-13T05:47:51.960Z,3.23
2019-03-13T05:52:57.092Z,3.30
2019-03-13T05:58:02.402Z,3.31
2019-03-13T06:03:07.535Z,3.33
2019-03-13T06:08:13.178Z,3.31
2019-03-13T06:13:18.328Z,3.29
2019-03-13T06:18:23.713Z,3.47
2019-03-13T06:23:29.601Z,3.47
2019-03-13T06:28:35.541Z,3.51
2019-03-13T06:33:40.707Z,3.54
2019-03-13T06:38:46.941Z,3.53
2019-03-13T06:43:52.091Z,3.46
2019-03-13T06:48:57.252Z,3.54
2019-03-13T06:54:02.403Z,3.65
2019-03-13T06:59:13.952Z,3.62
2019-03-13T07:04:24.948Z,3.71
2019-03-13T07:09:47.954Z,3.84
2019-03-13T07:15:12.420Z,4.13
2019-03-13T07:20:28.812Z,4.37
2019-03-13T07:25:52.966Z,4.66
2019-03-13T07:31:16.214Z,4.85
2019-03-13T07:36:42.033Z,5.09
2019-03-13T07:41:57.868Z,5.25
2019-03-13T07:47:29.234Z,5.42
2019-03-13T07:52:52.625Z,5.52
2019-03-13T07:58:26.002Z,5.57
2019-03-13T08:03:46.029Z,5.51
2019-03-13T08:09:05.212Z,5.71
2019-03-13T08:14:17.920Z,5.95
2019-03-13T08:19:42.912Z,6.06
2019-03-13T08:24:59.991Z,6.02
2019-03-13T08:30:30.861Z,6.24
2019-03-13T08:35:53.942Z,6.40
2019-03-13T08:41:27.413Z,6.74
2019-03-13T08:46:51.558Z,6.39
2019-03-13T08:52:16.984Z,6.40
2019-03-13T08:57:44.033Z,6.47
2019-03-13T09:03:14.879Z,6.44
2019-03-13T09:08:39.045Z,6.55
2019-03-13T09:13:58.394Z,6.52
2019-03-13T09:19:10.647Z,6.62
2019-03-13T09:24:34.790Z,6.56
2019-03-13T09:30:08.362Z,6.66
2019-03-13T09:35:26.925Z,6.46
2019-03-13T09:41:00.387Z,6.40
2019-03-13T09:46:36.974Z,6.38
2019-03-13T09:51:50.438Z,6.45
2019-03-13T09:57:33.016Z,6.58
2019-03-13T10:02:48.794Z,6.51
2019-03-13T10:08:00.809Z,6.54
2019-03-13T10:13:36.985Z,6.78
2019-03-13T10:18:59.839Z,6.73
2019-03-13T10:24:27.422Z,6.67
2019-03-13T10:30:03.663Z,6.97
2019-03-13T10:35:27.797Z,7.08
2019-03-13T10:40:43.020Z,7.13
2019-03-13T10:46:07.163Z,7.16
2019-03-13T10:51:35.295Z,7.12
2019-03-13T10:57:00.534Z,7.05
2019-03-13T11:02:24.794Z,6.89
2019-03-13T11:07:49.514Z,7.20
2019-03-13T11:13:05.036Z,7.36
2019-03-13T11:18:36.080Z,7.53
2019-03-13T11:23:47.376Z,7.73
2019-03-13T11:29:08.118Z,8.02
2019-03-13T11:34:21.789Z,8.25
2019-03-13T11:39:33.468Z,8.07
2019-03-13T11:45:00.515Z,8.22
2019-03-13T11:50:18.647Z,8.31
2019-03-13T11:55:33.328Z,8.35
2019-03-13T12:00:52.944Z,8.25
2019-03-13T12:06:16.437Z,8.25
2019-03-13T12:11:36.131Z,8.12
2019-03-13T12:16:52.238Z,8.27
2019-03-13T12:22:28.907Z,8.23
2019-03-13T12:28:00.264Z,8.30
2019-03-13T12:33:16.072Z,8.34
2019-03-13T12:38:49.112Z,8.30
2019-03-13T12:44:07.918Z,8.37
2019-03-13T12:49:34.947Z,8.63
2019-03-13T12:54:58.421Z,9.04
2019-03-13T13:00:12.108Z,8.69
2019-03-13T13:05:26.558Z,8.89
2019-03-13T13:10:45.610Z,8.74
2019-03-13T13:16:12.965Z,8.78
2019-03-13T13:21:18.134Z,8.76
2019-03-13T13:26:23.729Z,8.76
2019-03-13T13:31:29.451Z,8.41
2019-03-13T13:36:34.936Z,8.30
2019-03-13T13:41:40.563Z,8.42
2019-03-13T13:46:46.161Z,8.14
2019-03-13T13:51:51.621Z,8.16
2019-03-13T13:56:56.867Z,8.39
2019-03-13T14:02:02.295Z,8.10
2019-03-13T14:07:08.756Z,7.92
2019-03-13T14:12:14.665Z,7.82
2019-03-13T14:17:20.163Z,7.71
2019-03-13T14:22:25.307Z,7.63
2019-03-13T14:27:31.259Z,7.62
2019-03-13T14:32:36.436Z,7.60
2019-03-13T14:37:42.857Z,7.57
2019-03-13T14:42:48.984Z,7.51
2019-03-13T14:47:54.535Z,7.45
2019-03-13T14:52:59.681Z,7.43
2019-03-13T14:58:04.834Z,7.47
2019-03-13T15:03:11.952Z,7.50
2019-03-13T15:08:18.216Z,7.52
2019-03-13T15:13:23.379Z,7.57
2019-03-13T15:18:29.162Z,7.57
2019-03-13T15:23:34.253Z,7.60
2019-03-13T15:28:39.450Z,7.60
2019-03-13T15:33:44.617Z,7.55
2019-03-13T15:38:50.221Z,7.56
2019-03-13T15:43:55.382Z,7.87
2019-03-13T15:49:00.594Z,7.85
2019-03-13T15:54:06.172Z,7.63
2019-03-13T15:59:12.235Z,7.59
2019-03-13T16:04:17.501Z,7.52
2019-03-13T16:09:23.088Z,7.49
2019-03-13T16:14:28.262Z,7.44
2019-03-13T16:19:33.446Z,7.43
2019-03-13T16:24:38.707Z,7.33
2019-03-13T16:29:44.510Z,7.13
2019-03-13T16:34:49.669Z,6.98
2019-03-13T16:39:54.819Z,6.86
2019-03-13T16:45:00.251Z,6.82
2019-03-13T16:50:06.828Z,6.78
2019-03-13T16:55:14.274Z,6.75
2019-03-13T17:00:22.151Z,6.67
2019-03-13T17:05:30.467Z,6.65
2019-03-13T17:10:36.436Z,6.66
2019-03-13T17:15:41.595Z,6.66
2019-03-13T17:20:46.869Z,6.67
2019-03-13T17:25:52.093Z,6.73
2019-03-13T17:30:58.186Z,6.71
2019-03-13T17:36:04.534Z,6.61
2019-03-13T17:41:09.780Z,6.45
2019-03-13T17:46:15.346Z,6.12
2019-03-13T17:51:20.629Z,6.00
2019-03-13T17:56:26.777Z,6.00
2019-03-13T18:01:32.281Z,5.97
2019-03-13T18:06:40.810Z,5.98
2019-03-13T18:11:46.520Z,5.87
2019-03-13T18:16:52.695Z,5.79
2019-03-13T18:21:57.896Z,5.75
2019-03-13T18:27:03.063Z,5.72
2019-03-13T18:32:08.233Z,5.66
2019-03-13T18:37:13.421Z,5.61
2019-03-13T18:42:18.963Z,5.54
2019-03-13T18:47:26.278Z,5.53
2019-03-13T18:52:31.507Z,5.50
2019-03-13T18:57:36.961Z,5.33
2019-03-13T19:02:43.284Z,5.31
2019-03-13T19:07:48.835Z,5.38
2019-03-13T19:12:53.983Z,5.50
2019-03-13T19:18:01.450Z,5.33
2019-03-13T19:23:06.981Z,5.13
2019-03-13T19:28:12.250Z,4.98
2019-03-13T19:33:17.536Z,4.91
2019-03-13T19:38:23.038Z,4.84
2019-03-13T19:43:28.234Z,4.73
2019-03-13T19:48:33.826Z,4.67
2019-03-13T19:53:41.730Z,4.66
2019-03-13T19:58:45.707Z,4.61
2019-03-13T20:03:55.510Z,4.66
2019-03-13T20:08:58.220Z,4.74
2019-03-13T20:14:03.381Z,4.80
2019-03-13T20:19:09.567Z,4.85
2019-03-13T20:24:14.726Z,4.83
2019-03-13T20:29:20.089Z,4.87
2019-03-13T20:34:25.364Z,4.86
2019-03-13T20:39:30.763Z,4.88
2019-03-13T20:44:35.922Z,4.88
2019-03-13T20:49:41.100Z,4.95
2019-03-13T20:54:46.321Z,4.95
2019-03-13T20:59:52.393Z,4.96
2019-03-13T21:04:58.573Z,5.02
2019-03-13T21:10:04.493Z,5.00
2019-03-13T21:15:11.335Z,4.98
2019-03-13T21:20:17.549Z,4.91
2019-03-13T21:25:24.154Z,4.83
2019-03-13T21:30:29.370Z,4.65
2019-03-13T21:35:34.608Z,4.56
2019-03-13T21:40:40.438Z,4.58
2019-03-13T21:45:46.543Z,4.61
2019-03-13T21:50:51.691Z,4.57
2019-03-13T21:55:57.852Z,4.47
2019-03-13T22:01:03.048Z,4.40
2019-03-13T22:06:08.213Z,4.31
2019-03-13T22:11:14.516Z,4.28
2019-03-13T22:16:20.497Z,4.22
2019-03-13T22:21:25.992Z,4.26
2019-03-13T22:26:31.547Z,4.31
2019-03-13T22:31:38.777Z,4.27
2019-03-13T22:36:44.939Z,4.20
2019-03-13T22:41:50.217Z,4.23
2019-03-13T22:46:55.398Z,4.21
2019-03-13T22:52:01.615Z,4.26
2019-03-13T22:57:07.194Z,4.31
2019-03-13T23:02:13.303Z,4.46
2019-03-13T23:07:19.239Z,4.55
2019-03-13T23:12:24.424Z,4.49
2019-03-13T23:17:29.593Z,4.55
2019-03-13T23:22:34.850Z,4.66
2019-03-13T23:27:40.366Z,4.73
2019-03-13T23:32:45.799Z,4.75
2019-03-13T23:37:51.258Z,4.86
2019-03-13T23:42:57.096Z,4.81
2019-03-13T23:48:02.956Z,4.82
2019-03-13T23:53:08.211Z,4.83
2019-03-13T23:58:13.359Z,4.85
